sensor_id;sensor_type;location;lat;lon;timestamp;temperature;humidity
37222;DHT22;23119;51.842;-2.230;2023-04-25T00:01:21;6.30;99.90
37222;DHT22;23119;51.842;-2.230;2023-04-25T00:03:47;6.20;99.90
37222;DHT22;23119;51.842;-2.230;2023-04-25T00:06:15;6.20;99.90
37222;DHT22;23119;51.842;-2.230;2023-04-25T00:08:40;6.20;99.90
37222;DHT22;23119;51.842;-2.230;2023-04-25T00:11:06;6.10;99.90
37222;DHT22;23119;51.842;-2.230;2023-04-25T00:13:32;6.10;99.90
37222;DHT22;23119;51.842;-2.230;2023-04-25T00:16:15;6.10;99.90
37222;DHT22;23119;51.842;-2.230;2023-04-25T00:18:43;6.00;99.90
37222;DHT22;23119;51.842;-2.230;2023-04-25T00:21:17;6.00;99.90
37222;DHT22;23119;51.842;-2.230;2023-04-25T00:23:43;5.90;99.90
37222;DHT22;23119;51.842;-2.230;2023-04-25T00:26:11;5.90;99.90
37222;DHT22;23119;51.842;-2.230;2023-04-25T00:28:37;5.90;99.90
37222;DHT22;23119;51.842;-2.230;2023-04-25T00:31:03;5.90;99.90
37222;DHT22;23119;51.842;-2.230;2023-04-25T00:33:28;5.80;99.90
37222;DHT22;23119;51.842;-2.230;2023-04-25T00:35:56;5.80;99.90
37222;DHT22;23119;51.842;-2.230;2023-04-25T00:38:24;5.80;99.90
37222;DHT22;23119;51.842;-2.230;2023-04-25T00:40:49;5.80;99.90
37222;DHT22;23119;51.842;-2.230;2023-04-25T00:43:15;5.80;99.90
37222;DHT22;23119;51.842;-2.230;2023-04-25T00:45:41;5.90;99.90
37222;DHT22;23119;51.842;-2.230;2023-04-25T00:48:08;5.90;99.90
37222;DHT22;23119;51.842;-2.230;2023-04-25T00:50:34;5.80;99.90
37222;DHT22;23119;51.842;-2.230;2023-04-25T00:53:03;5.80;99.90
37222;DHT22;23119;51.842;-2.230;2023-04-25T00:55:31;5.80;99.90
37222;DHT22;23119;51.842;-2.230;2023-04-25T00:57:57;5.80;99.90
37222;DHT22;23119;51.842;-2.230;2023-04-25T01:00:25;5.80;99.90
37222;DHT22;23119;51.842;-2.230;2023-04-25T01:02:58;5.80;99.90
37222;DHT22;23119;51.842;-2.230;2023-04-25T01:05:25;5.70;99.90
37222;DHT22;23119;51.842;-2.230;2023-04-25T01:07:53;5.70;99.90
37222;DHT22;23119;51.842;-2.230;2023-04-25T01:10:20;5.60;99.90
37222;DHT22;23119;51.842;-2.230;2023-04-25T01:12:45;5.60;99.90
37222;DHT22;23119;51.842;-2.230;2023-04-25T01:15:11;5.50;99.90
37222;DHT22;23119;51.842;-2.230;2023-04-25T01:17:37;5.50;99.90
37222;DHT22;23119;51.842;-2.230;2023-04-25T01:20:03;5.50;99.90
37222;DHT22;23119;51.842;-2.230;2023-04-25T01:22:30;5.40;99.90
37222;DHT22;23119;51.842;-2.230;2023-04-25T01:24:55;5.40;99.90
37222;DHT22;23119;51.842;-2.230;2023-04-25T01:27:21;5.30;99.90
37222;DHT22;23119;51.842;-2.230;2023-04-25T01:29:48;5.30;99.90
37222;DHT22;23119;51.842;-2.230;2023-04-25T01:32:14;5.30;99.90
37222;DHT22;23119;51.842;-2.230;2023-04-25T01:34:40;5.20;99.90
37222;DHT22;23119;51.842;-2.230;2023-04-25T01:37:05;5.20;99.90
37222;DHT22;23119;51.842;-2.230;2023-04-25T01:39:37;5.20;99.90
37222;DHT22;23119;51.842;-2.230;2023-04-25T01:42:02;5.10;99.90
37222;DHT22;23119;51.842;-2.230;2023-04-25T01:44:28;5.10;99.90
37222;DHT22;23119;51.842;-2.230;2023-04-25T01:46:56;5.00;99.90
37222;DHT22;23119;51.842;-2.230;2023-04-25T01:49:22;5.00;99.90
37222;DHT22;23119;51.842;-2.230;2023-04-25T01:51:47;5.00;99.90
37222;DHT22;23119;51.842;-2.230;2023-04-25T01:54:13;4.90;99.90
37222;DHT22;23119;51.842;-2.230;2023-04-25T01:56:39;4.90;99.90
37222;DHT22;23119;51.842;-2.230;2023-04-25T01:59:05;4.90;99.90
37222;DHT22;23119;51.842;-2.230;2023-04-25T02:01:31;4.80;99.90
37222;DHT22;23119;51.842;-2.230;2023-04-25T02:03:56;4.60;99.90
37222;DHT22;23119;51.842;-2.230;2023-04-25T02:06:22;4.80;99.90
37222;DHT22;23119;51.842;-2.230;2023-04-25T02:08:48;4.70;99.90
37222;DHT22;23119;51.842;-2.230;2023-04-25T02:11:13;4.70;99.90
37222;DHT22;23119;51.842;-2.230;2023-04-25T02:13:39;4.60;99.90
37222;DHT22;23119;51.842;-2.230;2023-04-25T02:16:12;4.60;99.90
37222;DHT22;23119;51.842;-2.230;2023-04-25T02:18:38;4.60;99.90
37222;DHT22;23119;51.842;-2.230;2023-04-25T02:21:04;4.50;99.90
37222;DHT22;23119;51.842;-2.230;2023-04-25T02:23:29;4.50;99.90
37222;DHT22;23119;51.842;-2.230;2023-04-25T02:25:55;4.40;99.90
37222;DHT22;23119;51.842;-2.230;2023-04-25T02:28:23;4.40;99.90
37222;DHT22;23119;51.842;-2.230;2023-04-25T02:30:48;4.40;99.90
37222;DHT22;23119;51.842;-2.230;2023-04-25T02:33:14;4.40;99.90
37222;DHT22;23119;51.842;-2.230;2023-04-25T02:35:42;4.30;99.90
37222;DHT22;23119;51.842;-2.230;2023-04-25T02:38:10;4.30;99.90
37222;DHT22;23119;51.842;-2.230;2023-04-25T02:40:35;4.30;99.90
37222;DHT22;23119;51.842;-2.230;2023-04-25T02:43:01;4.30;99.90
37222;DHT22;23119;51.842;-2.230;2023-04-25T02:45:26;4.20;99.90
37222;DHT22;23119;51.842;-2.230;2023-04-25T02:47:52;4.20;99.90
37222;DHT22;23119;51.842;-2.230;2023-04-25T02:50:17;4.20;99.90
37222;DHT22;23119;51.842;-2.230;2023-04-25T02:52:43;4.10;99.90
37222;DHT22;23119;51.842;-2.230;2023-04-25T02:55:10;4.10;99.90
37222;DHT22;23119;51.842;-2.230;2023-04-25T02:57:36;4.10;99.90
37222;DHT22;23119;51.842;-2.230;2023-04-25T03:00:01;4.10;99.90
37222;DHT22;23119;51.842;-2.230;2023-04-25T03:02:27;4.10;99.90
37222;DHT22;23119;51.842;-2.230;2023-04-25T03:04:55;4.10;99.90
37222;DHT22;23119;51.842;-2.230;2023-04-25T03:07:20;4.00;99.90
37222;DHT22;23119;51.842;-2.230;2023-04-25T03:09:46;4.00;99.90
37222;DHT22;23119;51.842;-2.230;2023-04-25T03:12:15;4.00;99.90
37222;DHT22;23119;51.842;-2.230;2023-04-25T03:14:43;4.00;99.90
37222;DHT22;23119;51.842;-2.230;2023-04-25T03:17:11;4.00;99.90
37222;DHT22;23119;51.842;-2.230;2023-04-25T03:19:36;3.90;99.90
37222;DHT22;23119;51.842;-2.230;2023-04-25T03:22:02;3.90;99.90
37222;DHT22;23119;51.842;-2.230;2023-04-25T03:24:28;3.90;99.90
37222;DHT22;23119;51.842;-2.230;2023-04-25T03:26:53;3.90;99.90
37222;DHT22;23119;51.842;-2.230;2023-04-25T03:29:19;3.90;99.90
37222;DHT22;23119;51.842;-2.230;2023-04-25T03:31:45;3.90;99.90
37222;DHT22;23119;51.842;-2.230;2023-04-25T03:34:10;3.90;99.90
37222;DHT22;23119;51.842;-2.230;2023-04-25T03:36:36;3.90;99.90
37222;DHT22;23119;51.842;-2.230;2023-04-25T03:39:01;3.80;99.90
37222;DHT22;23119;51.842;-2.230;2023-04-25T03:41:27;3.80;99.90
37222;DHT22;23119;51.842;-2.230;2023-04-25T03:43:55;3.80;99.90
37222;DHT22;23119;51.842;-2.230;2023-04-25T03:46:21;3.80;99.90
37222;DHT22;23119;51.842;-2.230;2023-04-25T03:48:49;3.80;99.90
37222;DHT22;23119;51.842;-2.230;2023-04-25T03:51:15;3.70;99.90
37222;DHT22;23119;51.842;-2.230;2023-04-25T03:53:40;3.60;99.90
37222;DHT22;23119;51.842;-2.230;2023-04-25T03:56:06;3.60;99.90
37222;DHT22;23119;51.842;-2.230;2023-04-25T03:58:32;3.60;99.90
37222;DHT22;23119;51.842;-2.230;2023-04-25T04:00:57;3.60;99.90
37222;DHT22;23119;51.842;-2.230;2023-04-25T04:03:23;3.60;99.90
37222;DHT22;23119;51.842;-2.230;2023-04-25T04:05:48;3.50;99.90
37222;DHT22;23119;51.842;-2.230;2023-04-25T04:08:15;3.50;99.90
37222;DHT22;23119;51.842;-2.230;2023-04-25T04:10:43;3.50;99.90
37222;DHT22;23119;51.842;-2.230;2023-04-25T04:13:08;3.40;99.90
37222;DHT22;23119;51.842;-2.230;2023-04-25T04:15:34;3.40;99.90
37222;DHT22;23119;51.842;-2.230;2023-04-25T04:17:59;3.40;99.90
37222;DHT22;23119;51.842;-2.230;2023-04-25T04:20:28;3.30;99.90
37222;DHT22;23119;51.842;-2.230;2023-04-25T04:22:54;3.30;99.90
37222;DHT22;23119;51.842;-2.230;2023-04-25T04:25:20;3.20;99.90
37222;DHT22;23119;51.842;-2.230;2023-04-25T04:27:50;3.20;99.90
37222;DHT22;23119;51.842;-2.230;2023-04-25T04:30:22;3.20;99.90
37222;DHT22;23119;51.842;-2.230;2023-04-25T04:32:51;3.20;99.90
37222;DHT22;23119;51.842;-2.230;2023-04-25T04:35:16;3.20;99.90
37222;DHT22;23119;51.842;-2.230;2023-04-25T04:37:42;3.20;99.90
37222;DHT22;23119;51.842;-2.230;2023-04-25T04:40:18;3.20;99.90
37222;DHT22;23119;51.842;-2.230;2023-04-25T04:42:44;3.20;99.90
37222;DHT22;23119;51.842;-2.230;2023-04-25T04:45:10;3.10;99.90
37222;DHT22;23119;51.842;-2.230;2023-04-25T04:47:37;3.10;99.90
37222;DHT22;23119;51.842;-2.230;2023-04-25T04:50:07;3.10;99.90
37222;DHT22;23119;51.842;-2.230;2023-04-25T04:52:35;3.20;99.90
37222;DHT22;23119;51.842;-2.230;2023-04-25T04:55:03;3.20;99.90
37222;DHT22;23119;51.842;-2.230;2023-04-25T04:57:29;3.20;99.90
37222;DHT22;23119;51.842;-2.230;2023-04-25T04:59:56;3.20;99.90
37222;DHT22;23119;51.842;-2.230;2023-04-25T05:02:22;3.30;99.90
37222;DHT22;23119;51.842;-2.230;2023-04-25T05:04:47;3.40;99.90
37222;DHT22;23119;51.842;-2.230;2023-04-25T05:07:13;3.40;99.90
37222;DHT22;23119;51.842;-2.230;2023-04-25T05:09:41;3.50;99.90
37222;DHT22;23119;51.842;-2.230;2023-04-25T05:12:09;3.70;99.90
37222;DHT22;23119;51.842;-2.230;2023-04-25T05:14:34;4.10;99.90
37222;DHT22;23119;51.842;-2.230;2023-04-25T05:17:07;4.30;99.90
37222;DHT22;23119;51.842;-2.230;2023-04-25T05:19:34;4.50;99.90
37222;DHT22;23119;51.842;-2.230;2023-04-25T05:21:59;4.50;99.90
37222;DHT22;23119;51.842;-2.230;2023-04-25T05:24:25;4.90;99.90
37222;DHT22;23119;51.842;-2.230;2023-04-25T05:26:50;5.70;99.90
37222;DHT22;23119;51.842;-2.230;2023-04-25T05:29:16;6.70;99.90
37222;DHT22;23119;51.842;-2.230;2023-04-25T05:31:42;7.70;99.90
37222;DHT22;23119;51.842;-2.230;2023-04-25T05:34:07;8.70;99.90
37222;DHT22;23119;51.842;-2.230;2023-04-25T05:36:33;9.70;99.90
37222;DHT22;23119;51.842;-2.230;2023-04-25T05:38:58;10.60;99.90
37222;DHT22;23119;51.842;-2.230;2023-04-25T05:41:24;11.60;99.90
37222;DHT22;23119;51.842;-2.230;2023-04-25T05:43:49;12.40;99.90
37222;DHT22;23119;51.842;-2.230;2023-04-25T05:46:15;13.40;99.90
37222;DHT22;23119;51.842;-2.230;2023-04-25T05:48:42;14.40;99.90
37222;DHT22;23119;51.842;-2.230;2023-04-25T05:51:08;15.50;99.90
37222;DHT22;23119;51.842;-2.230;2023-04-25T05:53:33;16.30;99.80
37222;DHT22;23119;51.842;-2.230;2023-04-25T05:55:59;17.30;98.40
37222;DHT22;23119;51.842;-2.230;2023-04-25T05:58:24;18.00;96.50
37222;DHT22;23119;51.842;-2.230;2023-04-25T06:00:50;18.80;94.60
37222;DHT22;23119;51.842;-2.230;2023-04-25T06:03:16;19.50;93.90
37222;DHT22;23119;51.842;-2.230;2023-04-25T06:05:42;20.20;92.90
37222;DHT22;23119;51.842;-2.230;2023-04-25T06:08:10;20.90;92.70
37222;DHT22;23119;51.842;-2.230;2023-04-25T06:10:36;21.60;90.70
37222;DHT22;23119;51.842;-2.230;2023-04-25T06:13:02;22.40;90.20
37222;DHT22;23119;51.842;-2.230;2023-04-25T06:15:27;23.00;88.60
37222;DHT22;23119;51.842;-2.230;2023-04-25T06:17:53;23.50;85.80
37222;DHT22;23119;51.842;-2.230;2023-04-25T06:20:19;23.40;81.00
37222;DHT22;23119;51.842;-2.230;2023-04-25T06:22:48;24.20;73.10
37222;DHT22;23119;51.842;-2.230;2023-04-25T06:25:16;24.80;81.10
37222;DHT22;23119;51.842;-2.230;2023-04-25T06:27:42;25.70;80.40
37222;DHT22;23119;51.842;-2.230;2023-04-25T06:30:08;26.10;75.40
37222;DHT22;23119;51.842;-2.230;2023-04-25T06:32:36;26.60;75.00
37222;DHT22;23119;51.842;-2.230;2023-04-25T06:35:02;27.10;76.50
37222;DHT22;23119;51.842;-2.230;2023-04-25T06:37:30;27.90;73.20
37222;DHT22;23119;51.842;-2.230;2023-04-25T06:39:58;28.50;73.50
37222;DHT22;23119;51.842;-2.230;2023-04-25T06:42:24;29.20;71.80
37222;DHT22;23119;51.842;-2.230;2023-04-25T06:44:49;29.30;63.90
37222;DHT22;23119;51.842;-2.230;2023-04-25T06:47:15;29.60;67.80
37222;DHT22;23119;51.842;-2.230;2023-04-25T06:49:40;30.00;65.40
37222;DHT22;23119;51.842;-2.230;2023-04-25T06:52:07;30.00;63.10
37222;DHT22;23119;51.842;-2.230;2023-04-25T06:54:32;30.20;62.50
37222;DHT22;23119;51.842;-2.230;2023-04-25T06:56:58;30.50;63.90
37222;DHT22;23119;51.842;-2.230;2023-04-25T06:59:23;31.20;64.80
37222;DHT22;23119;51.842;-2.230;2023-04-25T07:01:49;31.90;62.50
37222;DHT22;23119;51.842;-2.230;2023-04-25T07:04:15;32.00;59.30
37222;DHT22;23119;51.842;-2.230;2023-04-25T07:06:40;32.20;62.10
37222;DHT22;23119;51.842;-2.230;2023-04-25T07:09:11;33.00;61.80
37222;DHT22;23119;51.842;-2.230;2023-04-25T07:11:36;33.60;61.70
37222;DHT22;23119;51.842;-2.230;2023-04-25T07:14:02;33.60;59.30
37222;DHT22;23119;51.842;-2.230;2023-04-25T07:16:28;34.20;59.70
37222;DHT22;23119;51.842;-2.230;2023-04-25T07:18:54;34.60;59.60
37222;DHT22;23119;51.842;-2.230;2023-04-25T07:21:22;34.90;58.90
37222;DHT22;23119;51.842;-2.230;2023-04-25T07:23:48;35.30;60.10
37222;DHT22;23119;51.842;-2.230;2023-04-25T07:26:13;35.70;58.50
37222;DHT22;23119;51.842;-2.230;2023-04-25T07:28:39;36.00;58.40
37222;DHT22;23119;51.842;-2.230;2023-04-25T07:31:04;35.70;54.50
37222;DHT22;23119;51.842;-2.230;2023-04-25T07:33:30;36.10;55.70
37222;DHT22;23119;51.842;-2.230;2023-04-25T07:35:56;36.00;53.70
37222;DHT22;23119;51.842;-2.230;2023-04-25T07:38:31;35.30;53.60
37222;DHT22;23119;51.842;-2.230;2023-04-25T07:40:59;35.20;52.40
37222;DHT22;23119;51.842;-2.230;2023-04-25T07:43:27;34.90;52.30
37222;DHT22;23119;51.842;-2.230;2023-04-25T07:45:56;34.80;53.20
37222;DHT22;23119;51.842;-2.230;2023-04-25T07:48:22;35.50;52.90
37222;DHT22;23119;51.842;-2.230;2023-04-25T07:50:48;35.70;53.20
37222;DHT22;23119;51.842;-2.230;2023-04-25T07:53:13;35.30;51.50
37222;DHT22;23119;51.842;-2.230;2023-04-25T07:55:39;35.60;50.90
37222;DHT22;23119;51.842;-2.230;2023-04-25T07:58:11;35.90;52.10
37222;DHT22;23119;51.842;-2.230;2023-04-25T08:00:40;35.50;48.70
37222;DHT22;23119;51.842;-2.230;2023-04-25T08:03:08;35.30;49.90
37222;DHT22;23119;51.842;-2.230;2023-04-25T08:05:34;34.70;48.80
37222;DHT22;23119;51.842;-2.230;2023-04-25T08:07:59;33.60;49.10
37222;DHT22;23119;51.842;-2.230;2023-04-25T08:10:26;34.20;48.80
37222;DHT22;23119;51.842;-2.230;2023-04-25T08:12:51;33.40;50.20
37222;DHT22;23119;51.842;-2.230;2023-04-25T08:15:17;32.90;49.50
37222;DHT22;23119;51.842;-2.230;2023-04-25T08:17:42;32.50;49.70
37222;DHT22;23119;51.842;-2.230;2023-04-25T08:20:11;32.40;49.70
37222;DHT22;23119;51.842;-2.230;2023-04-25T08:22:37;32.00;49.20
37222;DHT22;23119;51.842;-2.230;2023-04-25T08:25:03;32.00;50.70
37222;DHT22;23119;51.842;-2.230;2023-04-25T08:27:28;32.10;49.70
37222;DHT22;23119;51.842;-2.230;2023-04-25T08:29:54;31.50;49.30
37222;DHT22;23119;51.842;-2.230;2023-04-25T08:32:20;30.50;49.30
37222;DHT22;23119;51.842;-2.230;2023-04-25T08:34:46;29.90;49.80
37222;DHT22;23119;51.842;-2.230;2023-04-25T08:37:12;29.50;51.00
37222;DHT22;23119;51.842;-2.230;2023-04-25T08:39:38;28.90;50.60
37222;DHT22;23119;51.842;-2.230;2023-04-25T08:42:05;28.20;51.20
37222;DHT22;23119;51.842;-2.230;2023-04-25T08:44:35;28.10;52.70
37222;DHT22;23119;51.842;-2.230;2023-04-25T08:47:04;27.60;53.70
37222;DHT22;23119;51.842;-2.230;2023-04-25T08:49:33;27.10;53.50
37222;DHT22;23119;51.842;-2.230;2023-04-25T08:51:59;26.10;54.00
37222;DHT22;23119;51.842;-2.230;2023-04-25T08:54:25;25.80;55.80
37222;DHT22;23119;51.842;-2.230;2023-04-25T08:56:54;25.30;56.10
37222;DHT22;23119;51.842;-2.230;2023-04-25T08:59:22;24.90;56.40
37222;DHT22;23119;51.842;-2.230;2023-04-25T09:01:49;24.50;56.80
37222;DHT22;23119;51.842;-2.230;2023-04-25T09:04:15;24.30;57.50
37222;DHT22;23119;51.842;-2.230;2023-04-25T09:06:40;24.00;58.00
37222;DHT22;23119;51.842;-2.230;2023-04-25T09:09:07;23.30;58.20
37222;DHT22;23119;51.842;-2.230;2023-04-25T09:11:33;22.30;59.30
37222;DHT22;23119;51.842;-2.230;2023-04-25T09:16:57;20.90;62.40
37222;DHT22;23119;51.842;-2.230;2023-04-25T09:19:30;20.40;62.30
37222;DHT22;23119;51.842;-2.230;2023-04-25T09:21:59;20.10;63.60
37222;DHT22;23119;51.842;-2.230;2023-04-25T09:24:42;19.90;62.50
37222;DHT22;23119;51.842;-2.230;2023-04-25T09:27:13;19.80;64.30
37222;DHT22;23119;51.842;-2.230;2023-04-25T09:29:42;19.20;64.20
37222;DHT22;23119;51.842;-2.230;2023-04-25T09:32:15;19.10;66.60
37222;DHT22;23119;51.842;-2.230;2023-04-25T09:34:42;18.40;63.80
37222;DHT22;23119;51.842;-2.230;2023-04-25T09:37:11;18.20;65.40
37222;DHT22;23119;51.842;-2.230;2023-04-25T09:39:37;18.20;66.50
37222;DHT22;23119;51.842;-2.230;2023-04-25T09:42:04;18.10;64.20
37222;DHT22;23119;51.842;-2.230;2023-04-25T09:44:32;18.00;62.60
37222;DHT22;23119;51.842;-2.230;2023-04-25T09:46:58;18.00;65.40
37222;DHT22;23119;51.842;-2.230;2023-04-25T09:49:27;17.20;62.80
37222;DHT22;23119;51.842;-2.230;2023-04-25T09:51:56;17.10;65.20
37222;DHT22;23119;51.842;-2.230;2023-04-25T09:54:23;16.70;66.10
37222;DHT22;23119;51.842;-2.230;2023-04-25T09:56:48;16.80;65.80
37222;DHT22;23119;51.842;-2.230;2023-04-25T09:59:16;16.70;65.80
37222;DHT22;23119;51.842;-2.230;2023-04-25T10:01:45;16.70;66.90
37222;DHT22;23119;51.842;-2.230;2023-04-25T10:04:11;16.80;67.20
37222;DHT22;23119;51.842;-2.230;2023-04-25T10:06:37;16.80;66.40
37222;DHT22;23119;51.842;-2.230;2023-04-25T10:09:05;16.40;65.70
37222;DHT22;23119;51.842;-2.230;2023-04-25T10:11:35;16.20;66.20
37222;DHT22;23119;51.842;-2.230;2023-04-25T10:14:02;15.80;66.20
37222;DHT22;23119;51.842;-2.230;2023-04-25T10:16:27;15.50;67.10
37222;DHT22;23119;51.842;-2.230;2023-04-25T10:18:53;15.50;68.80
37222;DHT22;23119;51.842;-2.230;2023-04-25T10:21:20;15.60;69.50
37222;DHT22;23119;51.842;-2.230;2023-04-25T10:23:49;15.90;69.80
37222;DHT22;23119;51.842;-2.230;2023-04-25T10:26:15;16.00;69.10
37222;DHT22;23119;51.842;-2.230;2023-04-25T10:29:01;15.70;67.70
37222;DHT22;23119;51.842;-2.230;2023-04-25T10:31:26;15.60;69.00
37222;DHT22;23119;51.842;-2.230;2023-04-25T10:33:52;15.20;69.00
37222;DHT22;23119;51.842;-2.230;2023-04-25T10:36:20;14.90;70.00
37222;DHT22;23119;51.842;-2.230;2023-04-25T10:38:51;14.90;68.30
37222;DHT22;23119;51.842;-2.230;2023-04-25T10:41:23;15.10;70.70
37222;DHT22;23119;51.842;-2.230;2023-04-25T10:43:49;15.10;67.90
37222;DHT22;23119;51.842;-2.230;2023-04-25T10:48:50;15.30;68.50
37222;DHT22;23119;51.842;-2.230;2023-04-25T10:51:22;15.50;67.00
37222;DHT22;23119;51.842;-2.230;2023-04-25T10:56:20;15.80;68.30
37222;DHT22;23119;51.842;-2.230;2023-04-25T10:58:48;15.60;67.00
37222;DHT22;23119;51.842;-2.230;2023-04-25T11:01:15;15.50;65.30
37222;DHT22;23119;51.842;-2.230;2023-04-25T11:03:41;15.70;66.90
37222;DHT22;23119;51.842;-2.230;2023-04-25T11:08:49;15.70;68.00
37222;DHT22;23119;51.842;-2.230;2023-04-25T11:11:18;15.80;65.00
37222;DHT22;23119;51.842;-2.230;2023-04-25T11:13:44;15.60;66.40
37222;DHT22;23119;51.842;-2.230;2023-04-25T11:16:23;15.40;67.60
37222;DHT22;23119;51.842;-2.230;2023-04-25T11:18:49;15.60;67.80
37222;DHT22;23119;51.842;-2.230;2023-04-25T11:21:14;15.70;67.60
37222;DHT22;23119;51.842;-2.230;2023-04-25T11:23:41;15.90;68.40
37222;DHT22;23119;51.842;-2.230;2023-04-25T11:26:13;16.10;67.70
37222;DHT22;23119;51.842;-2.230;2023-04-25T11:28:39;16.20;67.40
37222;DHT22;23119;51.842;-2.230;2023-04-25T11:31:05;15.90;66.50
37222;DHT22;23119;51.842;-2.230;2023-04-25T11:33:30;15.70;65.20
37222;DHT22;23119;51.842;-2.230;2023-04-25T11:35:56;15.80;65.70
37222;DHT22;23119;51.842;-2.230;2023-04-25T11:38:25;15.80;65.90
37222;DHT22;23119;51.842;-2.230;2023-04-25T11:40:54;15.90;66.50
37222;DHT22;23119;51.842;-2.230;2023-04-25T11:43:20;16.10;67.10
37222;DHT22;23119;51.842;-2.230;2023-04-25T11:45:49;16.10;66.10
37222;DHT22;23119;51.842;-2.230;2023-04-25T11:48:16;16.00;67.60
37222;DHT22;23119;51.842;-2.230;2023-04-25T11:50:44;15.80;67.00
37222;DHT22;23119;51.842;-2.230;2023-04-25T11:53:12;15.80;65.30
37222;DHT22;23119;51.842;-2.230;2023-04-25T11:55:40;15.80;65.30
37222;DHT22;23119;51.842;-2.230;2023-04-25T11:58:06;15.70;65.00
37222;DHT22;23119;51.842;-2.230;2023-04-25T12:00:32;15.80;65.50
37222;DHT22;23119;51.842;-2.230;2023-04-25T12:02:58;15.80;66.80
37222;DHT22;23119;51.842;-2.230;2023-04-25T12:05:24;15.70;66.50
37222;DHT22;23119;51.842;-2.230;2023-04-25T12:07:53;15.70;66.30
37222;DHT22;23119;51.842;-2.230;2023-04-25T12:10:18;15.40;67.30
37222;DHT22;23119;51.842;-2.230;2023-04-25T12:12:45;15.30;68.60
37222;DHT22;23119;51.842;-2.230;2023-04-25T12:15:12;15.30;68.70
37222;DHT22;23119;51.842;-2.230;2023-04-25T12:17:40;15.50;68.60
37222;DHT22;23119;51.842;-2.230;2023-04-25T12:20:07;15.70;68.40
37222;DHT22;23119;51.842;-2.230;2023-04-25T12:22:32;15.90;68.10
37222;DHT22;23119;51.842;-2.230;2023-04-25T12:24:59;15.90;66.40
37222;DHT22;23119;51.842;-2.230;2023-04-25T12:27:28;15.80;66.50
37222;DHT22;23119;51.842;-2.230;2023-04-25T12:29:56;15.70;68.20
37222;DHT22;23119;51.842;-2.230;2023-04-25T12:32:21;15.90;68.50
37222;DHT22;23119;51.842;-2.230;2023-04-25T12:34:47;15.80;68.00
37222;DHT22;23119;51.842;-2.230;2023-04-25T12:37:13;15.60;68.20
37222;DHT22;23119;51.842;-2.230;2023-04-25T12:42:24;15.40;68.70
37222;DHT22;23119;51.842;-2.230;2023-04-25T12:44:49;15.50;69.50
37222;DHT22;23119;51.842;-2.230;2023-04-25T12:47:19;15.70;69.70
37222;DHT22;23119;51.842;-2.230;2023-04-25T12:49:48;15.80;69.40
37222;DHT22;23119;51.842;-2.230;2023-04-25T12:52:16;15.50;68.70
37222;DHT22;23119;51.842;-2.230;2023-04-25T12:54:42;15.40;69.40
37222;DHT22;23119;51.842;-2.230;2023-04-25T12:57:07;15.40;70.00
37222;DHT22;23119;51.842;-2.230;2023-04-25T12:59:36;15.30;69.80
37222;DHT22;23119;51.842;-2.230;2023-04-25T13:02:01;15.30;69.10
37222;DHT22;23119;51.842;-2.230;2023-04-25T13:04:30;15.20;69.30
37222;DHT22;23119;51.842;-2.230;2023-04-25T13:06:56;15.10;68.00
37222;DHT22;23119;51.842;-2.230;2023-04-25T13:09:21;15.10;68.80
37222;DHT22;23119;51.842;-2.230;2023-04-25T13:11:47;15.20;68.00
37222;DHT22;23119;51.842;-2.230;2023-04-25T13:14:15;15.40;67.10
37222;DHT22;23119;51.842;-2.230;2023-04-25T13:16:43;15.50;65.30
37222;DHT22;23119;51.842;-2.230;2023-04-25T13:19:09;15.60;65.60
37222;DHT22;23119;51.842;-2.230;2023-04-25T13:21:36;15.70;66.60
37222;DHT22;23119;51.842;-2.230;2023-04-25T13:24:05;15.80;67.50
37222;DHT22;23119;51.842;-2.230;2023-04-25T13:26:34;16.20;66.00
37222;DHT22;23119;51.842;-2.230;2023-04-25T13:28:59;16.60;67.80
37222;DHT22;23119;51.842;-2.230;2023-04-25T13:31:27;17.00;67.40
37222;DHT22;23119;51.842;-2.230;2023-04-25T13:33:56;17.10;67.60
37222;DHT22;23119;51.842;-2.230;2023-04-25T13:36:21;17.00;66.70
37222;DHT22;23119;51.842;-2.230;2023-04-25T13:38:49;16.80;67.60
37222;DHT22;23119;51.842;-2.230;2023-04-25T13:41:18;16.80;68.30
37222;DHT22;23119;51.842;-2.230;2023-04-25T13:43:45;16.70;67.30
37222;DHT22;23119;51.842;-2.230;2023-04-25T13:46:15;16.60;68.00
37222;DHT22;23119;51.842;-2.230;2023-04-25T13:48:41;16.50;65.70
37222;DHT22;23119;51.842;-2.230;2023-04-25T13:51:16;16.10;65.10
37222;DHT22;23119;51.842;-2.230;2023-04-25T13:53:43;15.70;65.40
37222;DHT22;23119;51.842;-2.230;2023-04-25T13:56:08;15.60;66.70
37222;DHT22;23119;51.842;-2.230;2023-04-25T13:58:41;15.50;64.70
37222;DHT22;23119;51.842;-2.230;2023-04-25T14:01:06;15.50;64.80
37222;DHT22;23119;51.842;-2.230;2023-04-25T14:03:32;15.70;65.50
37222;DHT22;23119;51.842;-2.230;2023-04-25T14:05:58;16.00;66.70
37222;DHT22;23119;51.842;-2.230;2023-04-25T14:08:24;16.30;65.20
37222;DHT22;23119;51.842;-2.230;2023-04-25T14:10:51;16.60;66.50
37222;DHT22;23119;51.842;-2.230;2023-04-25T14:13:17;16.80;64.70
37222;DHT22;23119;51.842;-2.230;2023-04-25T14:15:43;17.00;65.70
37222;DHT22;23119;51.842;-2.230;2023-04-25T14:18:14;17.00;64.20
37222;DHT22;23119;51.842;-2.230;2023-04-25T14:20:40;16.80;64.10
37222;DHT22;23119;51.842;-2.230;2023-04-25T14:23:06;16.30;64.80
37222;DHT22;23119;51.842;-2.230;2023-04-25T14:25:32;16.00;65.00
37222;DHT22;23119;51.842;-2.230;2023-04-25T14:28:00;15.70;64.90
37222;DHT22;23119;51.842;-2.230;2023-04-25T14:30:26;15.60;64.90
37222;DHT22;23119;51.842;-2.230;2023-04-25T14:32:54;17.10;66.80
37222;DHT22;23119;51.842;-2.230;2023-04-25T14:35:22;15.00;65.80
37222;DHT22;23119;51.842;-2.230;2023-04-25T14:37:50;14.90;66.70
37222;DHT22;23119;51.842;-2.230;2023-04-25T14:40:16;14.80;66.00
37222;DHT22;23119;51.842;-2.230;2023-04-25T14:42:42;14.60;67.00
37222;DHT22;23119;51.842;-2.230;2023-04-25T14:45:08;14.80;66.10
37222;DHT22;23119;51.842;-2.230;2023-04-25T14:47:36;15.10;67.90
37222;DHT22;23119;51.842;-2.230;2023-04-25T14:50:02;15.40;67.40
37222;DHT22;23119;51.842;-2.230;2023-04-25T14:52:28;15.60;67.00
37222;DHT22;23119;51.842;-2.230;2023-04-25T14:54:56;15.90;67.10
37222;DHT22;23119;51.842;-2.230;2023-04-25T14:57:25;15.90;67.20
37222;DHT22;23119;51.842;-2.230;2023-04-25T14:59:54;16.10;67.30
37222;DHT22;23119;51.842;-2.230;2023-04-25T15:02:23;16.00;65.10
37222;DHT22;23119;51.842;-2.230;2023-04-25T15:04:51;15.80;65.80
37222;DHT22;23119;51.842;-2.230;2023-04-25T15:07:17;15.60;65.10
37222;DHT22;23119;51.842;-2.230;2023-04-25T15:09:45;15.30;64.90
37222;DHT22;23119;51.842;-2.230;2023-04-25T15:12:10;15.40;65.40
37222;DHT22;23119;51.842;-2.230;2023-04-25T15:14:38;15.10;66.40
37222;DHT22;23119;51.842;-2.230;2023-04-25T15:17:04;15.00;67.10
37222;DHT22;23119;51.842;-2.230;2023-04-25T15:19:29;14.90;67.50
37222;DHT22;23119;51.842;-2.230;2023-04-25T15:21:57;14.80;66.60
37222;DHT22;23119;51.842;-2.230;2023-04-25T15:24:26;14.70;67.50
37222;DHT22;23119;51.842;-2.230;2023-04-25T15:26:52;14.80;67.00
37222;DHT22;23119;51.842;-2.230;2023-04-25T15:29:20;14.70;67.00
37222;DHT22;23119;51.842;-2.230;2023-04-25T15:31:48;14.80;66.40
37222;DHT22;23119;51.842;-2.230;2023-04-25T15:34:15;14.70;65.70